sensor_id;sensor_type;location;lat;lon;timestamp;P1;durP1;ratioP1;P2;durP2;ratioP2
48667;SDS011;34453;52.198;5.004;2022-07-09T00:01:48;20.35;;;14.30;;
48667;SDS011;34453;52.198;5.004;2022-07-09T00:04:14;16.45;;;14.85;;
48667;SDS011;34453;52.198;5.004;2022-07-09T00:06:39;21.75;;;14.75;;
48667;SDS011;34453;52.198;5.004;2022-07-09T00:09:05;18.58;;;15.25;;
48667;SDS011;34453;52.198;5.004;2022-07-09T00:11:30;18.63;;;15.40;;
48667;SDS011;34453;52.198;5.004;2022-07-09T00:13:55;16.35;;;14.35;;
48667;SDS011;34453;52.198;5.004;2022-07-09T00:16:21;17.00;;;13.93;;
48667;SDS011;34453;52.198;5.004;2022-07-09T00:18:46;23.42;;;16.90;;
48667;SDS011;34453;52.198;5.004;2022-07-09T00:21:12;16.85;;;14.00;;
48667;SDS011;34453;52.198;5.004;2022-07-09T00:23:37;18.92;;;15.27;;
48667;SDS011;34453;52.198;5.004;2022-07-09T00:26:03;21.20;;;17.20;;
48667;SDS011;34453;52.198;5.004;2022-07-09T00:28:29;24.10;;;17.15;;
48667;SDS011;34453;52.198;5.004;2022-07-09T00:30:54;18.60;;;15.05;;
48667;SDS011;34453;52.198;5.004;2022-07-09T00:33:19;18.90;;;15.02;;
48667;SDS011;34453;52.198;5.004;2022-07-09T00:35:45;17.25;;;15.48;;
48667;SDS011;34453;52.198;5.004;2022-07-09T00:38:11;20.58;;;15.30;;
48667;SDS011;34453;52.198;5.004;2022-07-09T00:40:36;15.40;;;13.82;;
48667;SDS011;34453;52.198;5.004;2022-07-09T00:43:02;17.95;;;15.25;;
48667;SDS011;34453;52.198;5.004;2022-07-09T00:45:28;18.48;;;15.15;;
48667;SDS011;34453;52.198;5.004;2022-07-09T00:47:53;16.70;;;15.00;;
48667;SDS011;34453;52.198;5.004;2022-07-09T00:50:19;22.20;;;16.25;;
48667;SDS011;34453;52.198;5.004;2022-07-09T00:52:44;23.60;;;18.30;;
48667;SDS011;34453;52.198;5.004;2022-07-09T00:55:11;25.05;;;18.02;;
48667;SDS011;34453;52.198;5.004;2022-07-09T00:57:38;20.38;;;17.63;;
48667;SDS011;34453;52.198;5.004;2022-07-09T01:00:05;26.75;;;18.70;;
48667;SDS011;34453;52.198;5.004;2022-07-09T01:02:31;26.83;;;19.35;;
48667;SDS011;34453;52.198;5.004;2022-07-09T01:04:57;24.67;;;18.23;;
48667;SDS011;34453;52.198;5.004;2022-07-09T01:07:22;26.60;;;20.38;;
48667;SDS011;34453;52.198;5.004;2022-07-09T01:09:48;23.20;;;18.13;;
48667;SDS011;34453;52.198;5.004;2022-07-09T01:12:13;25.63;;;19.80;;
48667;SDS011;34453;52.198;5.004;2022-07-09T01:14:39;26.52;;;20.02;;
48667;SDS011;34453;52.198;5.004;2022-07-09T01:17:05;27.00;;;19.63;;
48667;SDS011;34453;52.198;5.004;2022-07-09T01:19:32;22.67;;;19.50;;
48667;SDS011;34453;52.198;5.004;2022-07-09T01:21:58;20.60;;;18.40;;
48667;SDS011;34453;52.198;5.004;2022-07-09T01:24:24;32.67;;;22.30;;
48667;SDS011;34453;52.198;5.004;2022-07-09T01:26:51;25.30;;;20.63;;
48667;SDS011;34453;52.198;5.004;2022-07-09T01:29:18;25.80;;;20.23;;
48667;SDS011;34453;52.198;5.004;2022-07-09T01:31:44;30.98;;;22.42;;
48667;SDS011;34453;52.198;5.004;2022-07-09T01:34:10;32.03;;;22.30;;
48667;SDS011;34453;52.198;5.004;2022-07-09T01:36:35;34.55;;;24.05;;
48667;SDS011;34453;52.198;5.004;2022-07-09T01:39:01;31.75;;;23.98;;
48667;SDS011;34453;52.198;5.004;2022-07-09T01:41:26;28.52;;;22.20;;
48667;SDS011;34453;52.198;5.004;2022-07-09T01:43:52;31.85;;;24.73;;
48667;SDS011;34453;52.198;5.004;2022-07-09T01:46:17;34.15;;;24.02;;
48667;SDS011;34453;52.198;5.004;2022-07-09T01:48:43;33.25;;;23.95;;
48667;SDS011;34453;52.198;5.004;2022-07-09T01:51:08;30.30;;;22.65;;
48667;SDS011;34453;52.198;5.004;2022-07-09T01:53:35;30.00;;;22.65;;
48667;SDS011;34453;52.198;5.004;2022-07-09T01:56:07;28.77;;;22.15;;
48667;SDS011;34453;52.198;5.004;2022-07-09T01:58:34;32.10;;;21.13;;
48667;SDS011;34453;52.198;5.004;2022-07-09T02:01:00;28.65;;;21.75;;
48667;SDS011;34453;52.198;5.004;2022-07-09T02:03:27;29.10;;;23.75;;
48667;SDS011;34453;52.198;5.004;2022-07-09T02:05:53;32.17;;;21.90;;
48667;SDS011;34453;52.198;5.004;2022-07-09T02:08:18;39.58;;;21.23;;
48667;SDS011;34453;52.198;5.004;2022-07-09T02:10:44;26.30;;;18.35;;
48667;SDS011;34453;52.198;5.004;2022-07-09T02:13:11;28.40;;;18.48;;
48667;SDS011;34453;52.198;5.004;2022-07-09T02:15:37;48.83;;;19.98;;
48667;SDS011;34453;52.198;5.004;2022-07-09T02:18:02;28.48;;;17.35;;
48667;SDS011;34453;52.198;5.004;2022-07-09T02:20:29;137.88;;;23.23;;
48667;SDS011;34453;52.198;5.004;2022-07-09T02:22:57;51.10;;;20.83;;
48667;SDS011;34453;52.198;5.004;2022-07-09T02:25:22;62.25;;;19.95;;
48667;SDS011;34453;52.198;5.004;2022-07-09T02:27:48;35.08;;;19.75;;
48667;SDS011;34453;52.198;5.004;2022-07-09T02:30:13;28.70;;;19.95;;
48667;SDS011;34453;52.198;5.004;2022-07-09T02:32:39;31.85;;;20.30;;
48667;SDS011;34453;52.198;5.004;2022-07-09T02:35:05;38.75;;;22.17;;
48667;SDS011;34453;52.198;5.004;2022-07-09T02:37:31;25.52;;;20.05;;
48667;SDS011;34453;52.198;5.004;2022-07-09T02:39:57;27.83;;;22.70;;
48667;SDS011;34453;52.198;5.004;2022-07-09T02:42:22;32.53;;;23.33;;
48667;SDS011;34453;52.198;5.004;2022-07-09T02:44:48;29.17;;;23.20;;
48667;SDS011;34453;52.198;5.004;2022-07-09T02:47:13;40.75;;;24.85;;
48667;SDS011;34453;52.198;5.004;2022-07-09T02:49:39;244.25;;;35.80;;
48667;SDS011;34453;52.198;5.004;2022-07-09T02:52:04;51.15;;;22.45;;
48667;SDS011;34453;52.198;5.004;2022-07-09T02:54:31;24.95;;;19.58;;
48667;SDS011;34453;52.198;5.004;2022-07-09T02:56:57;33.40;;;21.83;;
48667;SDS011;34453;52.198;5.004;2022-07-09T02:59:22;39.97;;;20.48;;
48667;SDS011;34453;52.198;5.004;2022-07-09T03:01:48;37.90;;;19.60;;
48667;SDS011;34453;52.198;5.004;2022-07-09T03:04:13;22.75;;;20.30;;
48667;SDS011;34453;52.198;5.004;2022-07-09T03:06:39;30.58;;;19.95;;
48667;SDS011;34453;52.198;5.004;2022-07-09T03:09:04;40.45;;;20.73;;
48667;SDS011;34453;52.198;5.004;2022-07-09T03:11:31;35.97;;;19.42;;
48667;SDS011;34453;52.198;5.004;2022-07-09T03:13:57;172.73;;;22.63;;
48667;SDS011;34453;52.198;5.004;2022-07-09T03:16:23;53.75;;;18.92;;
48667;SDS011;34453;52.198;5.004;2022-07-09T03:18:48;34.38;;;17.98;;
48667;SDS011;34453;52.198;5.004;2022-07-09T03:21:14;25.50;;;17.50;;
48667;SDS011;34453;52.198;5.004;2022-07-09T03:23:39;34.15;;;16.92;;
48667;SDS011;34453;52.198;5.004;2022-07-09T03:26:05;36.10;;;17.27;;
48667;SDS011;34453;52.198;5.004;2022-07-09T03:28:31;35.15;;;16.25;;
48667;SDS011;34453;52.198;5.004;2022-07-09T03:30:58;46.67;;;16.60;;
48667;SDS011;34453;52.198;5.004;2022-07-09T03:33:24;60.63;;;18.27;;
48667;SDS011;34453;52.198;5.004;2022-07-09T03:35:49;26.75;;;17.98;;
48667;SDS011;34453;52.198;5.004;2022-07-09T03:38:15;30.85;;;18.13;;
48667;SDS011;34453;52.198;5.004;2022-07-09T03:40:40;19.63;;;17.75;;
48667;SDS011;34453;52.198;5.004;2022-07-09T03:43:06;21.63;;;19.50;;
48667;SDS011;34453;52.198;5.004;2022-07-09T03:45:31;24.83;;;19.35;;
48667;SDS011;34453;52.198;5.004;2022-07-09T03:47:57;21.60;;;19.40;;
48667;SDS011;34453;52.198;5.004;2022-07-09T03:50:22;20.73;;;17.98;;
48667;SDS011;34453;52.198;5.004;2022-07-09T03:52:48;19.90;;;17.90;;
48667;SDS011;34453;52.198;5.004;2022-07-09T03:55:14;19.67;;;17.00;;
48667;SDS011;34453;52.198;5.004;2022-07-09T03:57:40;20.63;;;17.52;;
48667;SDS011;34453;52.198;5.004;2022-07-09T04:00:06;26.60;;;22.20;;
48667;SDS011;34453;52.198;5.004;2022-07-09T04:02:32;25.80;;;21.05;;
48667;SDS011;34453;52.198;5.004;2022-07-09T04:04:57;24.55;;;21.17;;
48667;SDS011;34453;52.198;5.004;2022-07-09T04:07:23;26.75;;;23.05;;
48667;SDS011;34453;52.198;5.004;2022-07-09T04:09:54;27.13;;;22.30;;
48667;SDS011;34453;52.198;5.004;2022-07-09T04:12:20;24.63;;;21.98;;
48667;SDS011;34453;52.198;5.004;2022-07-09T04:14:46;28.55;;;23.73;;
48667;SDS011;34453;52.198;5.004;2022-07-09T04:17:11;30.75;;;23.75;;
48667;SDS011;34453;52.198;5.004;2022-07-09T04:19:36;27.10;;;21.80;;
48667;SDS011;34453;52.198;5.004;2022-07-09T04:22:02;23.17;;;20.73;;
48667;SDS011;34453;52.198;5.004;2022-07-09T04:24:28;30.38;;;24.25;;
48667;SDS011;34453;52.198;5.004;2022-07-09T04:26:54;31.58;;;23.98;;
48667;SDS011;34453;52.198;5.004;2022-07-09T04:29:20;30.60;;;22.40;;
48667;SDS011;34453;52.198;5.004;2022-07-09T04:31:45;30.73;;;23.20;;
48667;SDS011;34453;52.198;5.004;2022-07-09T04:34:11;29.23;;;23.65;;
48667;SDS011;34453;52.198;5.004;2022-07-09T04:36:36;32.72;;;24.15;;
48667;SDS011;34453;52.198;5.004;2022-07-09T04:39:02;27.73;;;23.33;;
48667;SDS011;34453;52.198;5.004;2022-07-09T04:41:27;27.77;;;22.58;;
48667;SDS011;34453;52.198;5.004;2022-07-09T04:43:53;28.88;;;22.02;;
48667;SDS011;34453;52.198;5.004;2022-07-09T04:46:19;29.38;;;21.98;;
48667;SDS011;34453;52.198;5.004;2022-07-09T04:48:46;29.92;;;22.73;;
48667;SDS011;34453;52.198;5.004;2022-07-09T04:51:12;27.45;;;23.90;;
48667;SDS011;34453;52.198;5.004;2022-07-09T04:53:37;29.77;;;24.48;;
48667;SDS011;34453;52.198;5.004;2022-07-09T04:56:03;26.80;;;22.42;;
48667;SDS011;34453;52.198;5.004;2022-07-09T04:58:28;28.38;;;21.95;;
48667;SDS011;34453;52.198;5.004;2022-07-09T05:00:54;23.02;;;20.70;;
48667;SDS011;34453;52.198;5.004;2022-07-09T05:03:20;24.70;;;21.75;;
48667;SDS011;34453;52.198;5.004;2022-07-09T05:05:46;23.80;;;20.45;;
48667;SDS011;34453;52.198;5.004;2022-07-09T05:08:11;29.25;;;20.58;;
48667;SDS011;34453;52.198;5.004;2022-07-09T05:10:37;29.95;;;22.48;;
48667;SDS011;34453;52.198;5.004;2022-07-09T05:13:03;24.60;;;20.67;;
48667;SDS011;34453;52.198;5.004;2022-07-09T05:15:28;30.25;;;21.63;;
48667;SDS011;34453;52.198;5.004;2022-07-09T05:17:57;32.85;;;21.17;;
48667;SDS011;34453;52.198;5.004;2022-07-09T05:20:23;27.17;;;21.10;;
48667;SDS011;34453;52.198;5.004;2022-07-09T05:22:49;25.80;;;19.77;;
48667;SDS011;34453;52.198;5.004;2022-07-09T05:25:15;21.75;;;19.45;;
48667;SDS011;34453;52.198;5.004;2022-07-09T05:27:41;27.65;;;21.25;;
48667;SDS011;34453;52.198;5.004;2022-07-09T05:30:08;22.88;;;19.02;;
48667;SDS011;34453;52.198;5.004;2022-07-09T05:32:34;24.90;;;20.17;;
48667;SDS011;34453;52.198;5.004;2022-07-09T05:35:00;26.98;;;20.50;;
48667;SDS011;34453;52.198;5.004;2022-07-09T05:37:25;25.80;;;19.65;;
48667;SDS011;34453;52.198;5.004;2022-07-09T05:39:51;27.02;;;19.40;;
48667;SDS011;34453;52.198;5.004;2022-07-09T05:42:16;22.85;;;17.35;;
48667;SDS011;34453;52.198;5.004;2022-07-09T05:44:42;24.23;;;17.80;;
48667;SDS011;34453;52.198;5.004;2022-07-09T05:47:07;19.23;;;17.15;;
48667;SDS011;34453;52.198;5.004;2022-07-09T05:49:33;21.05;;;17.88;;
48667;SDS011;34453;52.198;5.004;2022-07-09T05:51:58;23.73;;;18.88;;
48667;SDS011;34453;52.198;5.004;2022-07-09T05:54:24;24.15;;;18.50;;
48667;SDS011;34453;52.198;5.004;2022-07-09T05:56:50;22.83;;;18.15;;
48667;SDS011;34453;52.198;5.004;2022-07-09T05:59:16;21.48;;;19.17;;
48667;SDS011;34453;52.198;5.004;2022-07-09T06:01:41;23.90;;;19.23;;
48667;SDS011;34453;52.198;5.004;2022-07-09T06:04:08;24.08;;;18.45;;
48667;SDS011;34453;52.198;5.004;2022-07-09T06:06:34;20.13;;;18.13;;
48667;SDS011;34453;52.198;5.004;2022-07-09T06:08:59;21.05;;;17.25;;
48667;SDS011;34453;52.198;5.004;2022-07-09T06:11:25;20.27;;;18.23;;
48667;SDS011;34453;52.198;5.004;2022-07-09T06:13:50;20.80;;;18.17;;
48667;SDS011;34453;52.198;5.004;2022-07-09T06:16:16;19.40;;;17.45;;
48667;SDS011;34453;52.198;5.004;2022-07-09T06:18:41;18.92;;;17.02;;
48667;SDS011;34453;52.198;5.004;2022-07-09T06:21:07;19.58;;;16.85;;
48667;SDS011;34453;52.198;5.004;2022-07-09T06:23:33;18.23;;;16.42;;
48667;SDS011;34453;52.198;5.004;2022-07-09T06:25:58;18.52;;;16.75;;
48667;SDS011;34453;52.198;5.004;2022-07-09T06:28:27;18.85;;;17.05;;
48667;SDS011;34453;52.198;5.004;2022-07-09T06:30:52;21.15;;;18.02;;
48667;SDS011;34453;52.198;5.004;2022-07-09T06:33:18;21.30;;;18.35;;
48667;SDS011;34453;52.198;5.004;2022-07-09T06:35:43;18.67;;;16.73;;
48667;SDS011;34453;52.198;5.004;2022-07-09T06:38:09;19.45;;;16.42;;
48667;SDS011;34453;52.198;5.004;2022-07-09T06:40:34;17.90;;;16.13;;
48667;SDS011;34453;52.198;5.004;2022-07-09T06:43:00;18.52;;;16.63;;
48667;SDS011;34453;52.198;5.004;2022-07-09T06:45:26;18.25;;;16.38;;
48667;SDS011;34453;52.198;5.004;2022-07-09T06:47:51;19.60;;;16.15;;
48667;SDS011;34453;52.198;5.004;2022-07-09T06:50:18;16.73;;;15.10;;
48667;SDS011;34453;52.198;5.004;2022-07-09T06:52:44;22.65;;;17.85;;
48667;SDS011;34453;52.198;5.004;2022-07-09T06:55:10;20.38;;;16.33;;
48667;SDS011;34453;52.198;5.004;2022-07-09T06:57:36;18.40;;;16.60;;
48667;SDS011;34453;52.198;5.004;2022-07-09T07:00:03;22.33;;;16.15;;
48667;SDS011;34453;52.198;5.004;2022-07-09T07:02:31;17.10;;;15.27;;
48667;SDS011;34453;52.198;5.004;2022-07-09T07:04:57;19.40;;;14.30;;
48667;SDS011;34453;52.198;5.004;2022-07-09T07:07:22;15.77;;;13.45;;
48667;SDS011;34453;52.198;5.004;2022-07-09T07:09:48;15.48;;;12.57;;
48667;SDS011;34453;52.198;5.004;2022-07-09T07:12:14;12.90;;;11.00;;
48667;SDS011;34453;52.198;5.004;2022-07-09T07:14:40;14.70;;;13.00;;
48667;SDS011;34453;52.198;5.004;2022-07-09T07:17:05;13.15;;;10.85;;
48667;SDS011;34453;52.198;5.004;2022-07-09T07:19:31;12.70;;;10.85;;
48667;SDS011;34453;52.198;5.004;2022-07-09T07:21:56;12.77;;;10.75;;
48667;SDS011;34453;52.198;5.004;2022-07-09T07:24:22;17.00;;;11.38;;
48667;SDS011;34453;52.198;5.004;2022-07-09T07:26:47;8.32;;;7.63;;
48667;SDS011;34453;52.198;5.004;2022-07-09T07:29:13;7.78;;;7.03;;
48667;SDS011;34453;52.198;5.004;2022-07-09T07:31:39;7.15;;;5.55;;
48667;SDS011;34453;52.198;5.004;2022-07-09T07:34:04;5.70;;;5.20;;
48667;SDS011;34453;52.198;5.004;2022-07-09T07:36:30;7.72;;;4.93;;
48667;SDS011;34453;52.198;5.004;2022-07-09T07:38:55;9.35;;;4.47;;
48667;SDS011;34453;52.198;5.004;2022-07-09T07:41:21;3.58;;;3.38;;
48667;SDS011;34453;52.198;5.004;2022-07-09T07:43:47;6.93;;;3.05;;
48667;SDS011;34453;52.198;5.004;2022-07-09T07:46:13;5.22;;;2.72;;
48667;SDS011;34453;52.198;5.004;2022-07-09T07:48:39;4.90;;;3.50;;
48667;SDS011;34453;52.198;5.004;2022-07-09T07:51:08;3.17;;;2.88;;
48667;SDS011;34453;52.198;5.004;2022-07-09T07:53:35;2.95;;;2.70;;
48667;SDS011;34453;52.198;5.004;2022-07-09T07:56:04;2.95;;;2.75;;
48667;SDS011;34453;52.198;5.004;2022-07-09T07:58:31;2.85;;;2.50;;
48667;SDS011;34453;52.198;5.004;2022-07-09T08:00:56;2.17;;;2.05;;
48667;SDS011;34453;52.198;5.004;2022-07-09T08:03:22;3.33;;;2.60;;
48667;SDS011;34453;52.198;5.004;2022-07-09T08:05:48;3.13;;;1.70;;
48667;SDS011;34453;52.198;5.004;2022-07-09T08:08:13;1.55;;;1.45;;
48667;SDS011;34453;52.198;5.004;2022-07-09T08:10:39;2.97;;;1.98;;
48667;SDS011;34453;52.198;5.004;2022-07-09T08:13:05;6.40;;;2.20;;
48667;SDS011;34453;52.198;5.004;2022-07-09T08:15:30;3.80;;;2.72;;
48667;SDS011;34453;52.198;5.004;2022-07-09T08:17:56;2.08;;;1.98;;
48667;SDS011;34453;52.198;5.004;2022-07-09T08:20:21;3.15;;;2.63;;
48667;SDS011;34453;52.198;5.004;2022-07-09T08:22:47;1.45;;;1.45;;
48667;SDS011;34453;52.198;5.004;2022-07-09T08:25:13;2.15;;;2.00;;
48667;SDS011;34453;52.198;5.004;2022-07-09T08:27:39;2.00;;;1.65;;
48667;SDS011;34453;52.198;5.004;2022-07-09T08:30:05;1.67;;;1.50;;
48667;SDS011;34453;52.198;5.004;2022-07-09T08:32:31;1.27;;;1.25;;
48667;SDS011;34453;52.198;5.004;2022-07-09T08:34:57;5.10;;;1.67;;
48667;SDS011;34453;52.198;5.004;2022-07-09T08:37:23;0.90;;;0.90;;
48667;SDS011;34453;52.198;5.004;2022-07-09T08:39:49;7.18;;;1.30;;
48667;SDS011;34453;52.198;5.004;2022-07-09T08:42:15;3.25;;;0.90;;
48667;SDS011;34453;52.198;5.004;2022-07-09T08:44:42;2.35;;;1.05;;
48667;SDS011;34453;52.198;5.004;2022-07-09T08:47:11;2.45;;;1.10;;
48667;SDS011;34453;52.198;5.004;2022-07-09T08:49:39;5.38;;;1.45;;
48667;SDS011;34453;52.198;5.004;2022-07-09T08:52:06;1.83;;;1.17;;
48667;SDS011;34453;52.198;5.004;2022-07-09T08:54:34;1.52;;;0.88;;
48667;SDS011;34453;52.198;5.004;2022-07-09T08:57:01;1.67;;;0.82;;
48667;SDS011;34453;52.198;5.004;2022-07-09T08:59:28;5.35;;;1.35;;
48667;SDS011;34453;52.198;5.004;2022-07-09T09:01:53;1.77;;;1.10;;
48667;SDS011;34453;52.198;5.004;2022-07-09T09:04:19;1.67;;;1.10;;
48667;SDS011;34453;52.198;5.004;2022-07-09T09:06:45;2.40;;;1.38;;
48667;SDS011;34453;52.198;5.004;2022-07-09T09:09:16;0.90;;;0.70;;
48667;SDS011;34453;52.198;5.004;2022-07-09T09:11:46;3.80;;;1.27;;
48667;SDS011;34453;52.198;5.004;2022-07-09T09:14:18;3.03;;;1.20;;
48667;SDS011;34453;52.198;5.004;2022-07-09T09:16:45;0.73;;;0.70;;
48667;SDS011;34453;52.198;5.004;2022-07-09T09:19:11;1.45;;;0.90;;
48667;SDS011;34453;52.198;5.004;2022-07-09T09:21:37;2.60;;;1.00;;
48667;SDS011;34453;52.198;5.004;2022-07-09T09:24:03;1.92;;;0.77;;
48667;SDS011;34453;52.198;5.004;2022-07-09T09:26:29;2.78;;;1.15;;
48667;SDS011;34453;52.198;5.004;2022-07-09T09:31:26;1.77;;;0.85;;
48667;SDS011;34453;52.198;5.004;2022-07-09T09:33:55;2.17;;;1.40;;
48667;SDS011;34453;52.198;5.004;2022-07-09T09:36:36;2.88;;;0.90;;
48667;SDS011;34453;52.198;5.004;2022-07-09T09:44:12;5.10;;;1.45;;
48667;SDS011;34453;52.198;5.004;2022-07-09T09:46:40;1.92;;;1.38;;
48667;SDS011;34453;52.198;5.004;2022-07-09T09:49:07;3.05;;;1.15;;
48667;SDS011;34453;52.198;5.004;2022-07-09T09:51:35;4.30;;;1.42;;
48667;SDS011;34453;52.198;5.004;2022-07-09T09:54:03;3.15;;;1.40;;
48667;SDS011;34453;52.198;5.004;2022-07-09T09:56:30;1.80;;;1.10;;
48667;SDS011;34453;52.198;5.004;2022-07-09T09:58:58;1.23;;;0.77;;
48667;SDS011;34453;52.198;5.004;2022-07-09T10:01:24;0.90;;;0.75;;
48667;SDS011;34453;52.198;5.004;2022-07-09T10:03:51;1.50;;;0.90;;
48667;SDS011;34453;52.198;5.004;2022-07-09T10:06:16;2.75;;;1.02;;
48667;SDS011;34453;52.198;5.004;2022-07-09T10:08:42;1.75;;;0.60;;
48667;SDS011;34453;52.198;5.004;2022-07-09T10:11:07;2.17;;;0.93;;
48667;SDS011;34453;52.198;5.004;2022-07-09T10:13:37;3.33;;;1.10;;
48667;SDS011;34453;52.198;5.004;2022-07-09T10:16:03;0.82;;;0.82;;
48667;SDS011;34453;52.198;5.004;2022-07-09T10:18:28;0.98;;;0.98;;
48667;SDS011;34453;52.198;5.004;2022-07-09T10:20:55;1.35;;;0.70;;
48667;SDS011;34453;52.198;5.004;2022-07-09T10:23:25;0.60;;;0.60;;
48667;SDS011;34453;52.198;5.004;2022-07-09T10:25:54;6.28;;;0.73;;
48667;SDS011;34453;52.198;5.004;2022-07-09T10:28:22;3.33;;;2.00;;
48667;SDS011;34453;52.198;5.004;2022-07-09T10:30:50;1.52;;;0.98;;
48667;SDS011;34453;52.198;5.004;2022-07-09T10:35:48;0.75;;;0.70;;
48667;SDS011;34453;52.198;5.004;2022-07-09T10:38:15;2.22;;;2.03;;
48667;SDS011;34453;52.198;5.004;2022-07-09T10:40:42;0.90;;;0.90;;
48667;SDS011;34453;52.198;5.004;2022-07-09T10:43:09;2.28;;;1.00;;
48667;SDS011;34453;52.198;5.004;2022-07-09T10:48:02;2.45;;;0.95;;
48667;SDS011;34453;52.198;5.004;2022-07-09T10:50:30;3.08;;;1.10;;
48667;SDS011;34453;52.198;5.004;2022-07-09T10:52:57;1.73;;;0.80;;
48667;SDS011;34453;52.198;5.004;2022-07-09T10:55:26;2.67;;;1.00;;
48667;SDS011;34453;52.198;5.004;2022-07-09T10:57:54;3.92;;;1.13;;
48667;SDS011;34453;52.198;5.004;2022-07-09T11:00:21;1.40;;;0.98;;
48667;SDS011;34453;52.198;5.004;2022-07-09T11:02:57;6.25;;;2.00;;
48667;SDS011;34453;52.198;5.004;2022-07-09T11:05:23;4.97;;;2.35;;
48667;SDS011;34453;52.198;5.004;2022-07-09T11:07:56;4.50;;;4.10;;
48667;SDS011;34453;52.198;5.004;2022-07-09T11:10:25;4.70;;;1.70;;
48667;SDS011;34453;52.198;5.004;2022-07-09T11:12:54;4.15;;;1.40;;
48667;SDS011;34453;52.198;5.004;2022-07-09T11:15:21;1.08;;;1.00;;
48667;SDS011;34453;52.198;5.004;2022-07-09T11:17:57;2.58;;;0.90;;
48667;SDS011;34453;52.198;5.004;2022-07-09T11:20:28;1.92;;;0.90;;
48667;SDS011;34453;52.198;5.004;2022-07-09T11:22:54;1.38;;;0.82;;
48667;SDS011;34453;52.198;5.004;2022-07-09T11:25:26;2.05;;;0.90;;
48667;SDS011;34453;52.198;5.004;2022-07-09T11:27:56;1.13;;;0.80;;
48667;SDS011;34453;52.198;5.004;2022-07-09T11:30:23;4.18;;;0.93;;
48667;SDS011;34453;52.198;5.004;2022-07-09T11:32:49;1.42;;;1.17;;
48667;SDS011;34453;52.198;5.004;2022-07-09T11:35:31;3.55;;;1.27;;
48667;SDS011;34453;52.198;5.004;2022-07-09T11:37:59;2.65;;;1.00;;
48667;SDS011;34453;52.198;5.004;2022-07-09T11:40:27;2.60;;;0.90;;
48667;SDS011;34453;52.198;5.004;2022-07-09T11:42:53;12.15;;;1.83;;
48667;SDS011;34453;52.198;5.004;2022-07-09T11:45:20;6.78;;;1.25;;
48667;SDS011;34453;52.198;5.004;2022-07-09T11:47:47;6.32;;;1.60;;
48667;SDS011;34453;52.198;5.004;2022-07-09T11:50:13;3.20;;;0.85;;
48667;SDS011;34453;52.198;5.004;2022-07-09T11:52:44;3.17;;;1.10;;
48667;SDS011;34453;52.198;5.004;2022-07-09T11:55:11;3.83;;;0.88;;
48667;SDS011;34453;52.198;5.004;2022-07-09T11:57:49;1.90;;;0.80;;
48667;SDS011;34453;52.198;5.004;2022-07-09T12:00:20;3.22;;;1.10;;
48667;SDS011;34453;52.198;5.004;2022-07-09T12:02:50;1.98;;;0.90;;
48667;SDS011;34453;52.198;5.004;2022-07-09T12:05:26;2.50;;;0.90;;
48667;SDS011;34453;52.198;5.004;2022-07-09T12:07:55;2.05;;;0.70;;
48667;SDS011;34453;52.198;5.004;2022-07-09T12:10:26;4.22;;;1.88;;
48667;SDS011;34453;52.198;5.004;2022-07-09T12:12:56;1.60;;;0.65;;
48667;SDS011;34453;52.198;5.004;2022-07-09T12:15:22;2.13;;;0.82;;
48667;SDS011;34453;52.198;5.004;2022-07-09T12:17:52;0.98;;;0.80;;
48667;SDS011;34453;52.198;5.004;2022-07-09T12:20:19;3.00;;;0.70;;
48667;SDS011;34453;52.198;5.004;2022-07-09T12:22:46;5.07;;;0.80;;
48667;SDS011;34453;52.198;5.004;2022-07-09T12:25:12;3.45;;;0.80;;
48667;SDS011;34453;52.198;5.004;2022-07-09T12:27:38;1.15;;;0.75;;
48667;SDS011;34453;52.198;5.004;2022-07-09T12:30:04;3.33;;;0.98;;
48667;SDS011;34453;52.198;5.004;2022-07-09T12:32:30;2.30;;;1.13;;
48667;SDS011;34453;52.198;5.004;2022-07-09T12:34:56;2.22;;;1.20;;
48667;SDS011;34453;52.198;5.004;2022-07-09T12:37:21;2.85;;;0.82;;
48667;SDS011;34453;52.198;5.004;2022-07-09T12:39:47;3.53;;;1.08;;
48667;SDS011;34453;52.198;5.004;2022-07-09T12:42:14;3.83;;;0.90;;
48667;SDS011;34453;52.198;5.004;2022-07-09T12:44:40;6.25;;;1.25;;
48667;SDS011;34453;52.198;5.004;2022-07-09T12:47:06;3.38;;;1.40;;
48667;SDS011;34453;52.198;5.004;2022-07-09T12:49:31;3.22;;;1.00;;
48667;SDS011;34453;52.198;5.004;2022-07-09T12:51:57;2.75;;;1.10;;
48667;SDS011;34453;52.198;5.004;2022-07-09T12:54:22;5.13;;;0.90;;
48667;SDS011;34453;52.198;5.004;2022-07-09T12:56:48;4.22;;;1.30;;
48667;SDS011;34453;52.198;5.004;2022-07-09T12:59:16;3.40;;;1.08;;
48667;SDS011;34453;52.198;5.004;2022-07-09T13:01:43;9.40;;;1.98;;
48667;SDS011;34453;52.198;5.004;2022-07-09T13:04:09;5.30;;;0.77;;
48667;SDS011;34453;52.198;5.004;2022-07-09T13:06:35;0.70;;;0.57;;
48667;SDS011;34453;52.198;5.004;2022-07-09T13:09:01;6.32;;;1.23;;
48667;SDS011;34453;52.198;5.004;2022-07-09T13:11:28;3.88;;;0.88;;
48667;SDS011;34453;52.198;5.004;2022-07-09T13:13:54;4.75;;;1.25;;
48667;SDS011;34453;52.198;5.004;2022-07-09T13:16:20;11.00;;;2.22;;
48667;SDS011;34453;52.198;5.004;2022-07-09T13:18:46;6.40;;;1.30;;
48667;SDS011;34453;52.198;5.004;2022-07-09T13:21:11;5.32;;;2.17;;
48667;SDS011;34453;52.198;5.004;2022-07-09T13:23:37;8.40;;;1.77;;
48667;SDS011;34453;52.198;5.004;2022-07-09T13:26:03;8.30;;;2.20;;
48667;SDS011;34453;52.198;5.004;2022-07-09T13:28:29;11.30;;;1.77;;
48667;SDS011;34453;52.198;5.004;2022-07-09T13:30:55;9.32;;;1.65;;
48667;SDS011;34453;52.198;5.004;2022-07-09T13:33:21;7.75;;;1.75;;
48667;SDS011;34453;52.198;5.004;2022-07-09T13:35:46;6.13;;;1.50;;
48667;SDS011;34453;52.198;5.004;2022-07-09T13:38:12;7.45;;;1.83;;
48667;SDS011;34453;52.198;5.004;2022-07-09T13:40:38;2.85;;;1.30;;
48667;SDS011;34453;52.198;5.004;2022-07-09T13:43:04;8.18;;;1.83;;
48667;SDS011;34453;52.198;5.004;2022-07-09T13:45:29;7.40;;;1.65;;
48667;SDS011;34453;52.198;5.004;2022-07-09T13:47:55;3.42;;;1.35;;
48667;SDS011;34453;52.198;5.004;2022-07-09T13:50:22;5.80;;;1.17;;
48667;SDS011;34453;52.198;5.004;2022-07-09T13:52:48;4.80;;;1.45;;
48667;SDS011;34453;52.198;5.004;2022-07-09T13:55:14;5.75;;;1.33;;
48667;SDS011;34453;52.198;5.004;2022-07-09T13:57:39;5.32;;;0.93;;
48667;SDS011;34453;52.198;5.004;2022-07-09T14:00:06;5.47;;;1.75;;
48667;SDS011;34453;52.198;5.004;2022-07-09T14:02:33;1.58;;;0.88;;
48667;SDS011;34453;52.198;5.004;2022-07-09T14:04:59;3.08;;;1.17;;
48667;SDS011;34453;52.198;5.004;2022-07-09T14:07:25;3.80;;;1.70;;
48667;SDS011;34453;52.198;5.004;2022-07-09T14:09:51;3.90;;;1.30;;
48667;SDS011;34453;52.198;5.004;2022-07-09T14:12:17;7.65;;;1.40;;
48667;SDS011;34453;52.198;5.004;2022-07-09T14:14:43;8.75;;;2.47;;
48667;SDS011;34453;52.198;5.004;2022-07-09T14:17:10;8.55;;;1.33;;
48667;SDS011;34453;52.198;5.004;2022-07-09T14:19:35;6.03;;;1.58;;
48667;SDS011;34453;52.198;5.004;2022-07-09T14:22:01;6.57;;;1.20;;
48667;SDS011;34453;52.198;5.004;2022-07-09T14:24:27;8.02;;;1.27;;
48667;SDS011;34453;52.198;5.004;2022-07-09T14:26:53;3.50;;;1.40;;
48667;SDS011;34453;52.198;5.004;2022-07-09T14:29:19;4.55;;;1.35;;
48667;SDS011;34453;52.198;5.004;2022-07-09T14:31:44;4.88;;;1.17;;
48667;SDS011;34453;52.198;5.004;2022-07-09T14:34:10;4.63;;;1.35;;
48667;SDS011;34453;52.198;5.004;2022-07-09T14:36:36;3.15;;;1.00;;
48667;SDS011;34453;52.198;5.004;2022-07-09T14:39:05;3.28;;;1.13;;
48667;SDS011;34453;52.198;5.004;2022-07-09T14:41:31;3.33;;;0.95;;